createdAt,value
2019-04-21T00:01:10.229Z,7.86
2019-04-21T00:04:24.755Z,7.73
2019-04-21T00:07:37.749Z,7.96
2019-04-21T00:10:48.642Z,7.74
2019-04-21T00:13:51.424Z,7.58
2019-04-21T00:16:50.905Z,7.48
2019-04-21T00:20:11.470Z,7.59
2019-04-21T00:23:22.571Z,7.47
2019-04-21T00:26:27.931Z,7.44
2019-04-21T00:32:42.002Z,7.35
2019-04-21T00:35:45.291Z,7.15
2019-04-21T00:39:17.035Z,7.20
2019-04-21T00:42:12.867Z,7.09
2019-04-21T00:45:12.025Z,7.00
2019-04-21T00:48:30.439Z,6.99
2019-04-21T00:51:40.244Z,7.08
2019-04-21T00:54:49.777Z,7.02
2019-04-21T01:00:57.029Z,6.94
2019-04-21T01:04:02.194Z,6.89
2019-04-21T01:07:13.234Z,6.76
2019-04-21T01:10:09.410Z,6.73
2019-04-21T01:13:27.573Z,6.88
2019-04-21T01:16:33.453Z,7.16
2019-04-21T01:19:33.758Z,6.84
2019-04-21T01:22:23.519Z,6.69
2019-04-21T01:25:36.888Z,6.59
2019-04-21T01:28:52.843Z,6.61
2019-04-21T01:32:10.540Z,6.57
2019-04-21T01:35:10.117Z,6.43
2019-04-21T01:38:27.322Z,6.45
2019-04-21T01:41:29.328Z,6.93
2019-04-21T01:44:40.413Z,6.56
2019-04-21T01:47:36.098Z,6.33
2019-04-21T01:50:41.190Z,6.27
2019-04-21T01:54:21.945Z,6.20
2019-04-21T01:57:23.131Z,6.11
2019-04-21T02:00:51.870Z,6.04
2019-04-21T02:04:01.127Z,6.02
2019-04-21T02:07:09.868Z,5.91
2019-04-21T02:10:22.657Z,5.85
2019-04-21T02:13:17.628Z,5.81
2019-04-21T02:16:30.764Z,5.79
2019-04-21T02:19:31.234Z,5.77
2019-04-21T02:23:03.713Z,5.82
2019-04-21T02:25:50.647Z,5.84
2019-04-21T02:29:00.130Z,5.83
2019-04-21T02:32:14.908Z,5.77
2019-04-21T02:35:30.661Z,5.74
2019-04-21T02:41:45.669Z,5.77
2019-04-21T02:50:53.383Z,5.77
2019-04-21T02:54:42.060Z,5.72
2019-04-21T02:57:23.193Z,5.82
2019-04-21T03:00:26.813Z,5.75
2019-04-21T03:03:36.284Z,5.67
2019-04-21T03:07:09.777Z,5.67
2019-04-21T03:10:10.775Z,5.63
2019-04-21T03:13:23.451Z,5.57
2019-04-21T03:16:23.401Z,5.63
2019-04-21T03:19:37.945Z,5.55
2019-04-21T03:26:00.882Z,5.59
2019-04-21T03:32:28.408Z,5.41
2019-04-21T03:38:16.138Z,5.28
2019-04-21T03:41:26.148Z,5.23
2019-04-21T03:44:32.692Z,5.23
2019-04-21T03:47:30.712Z,5.12
2019-04-21T04:00:11.002Z,5.07
2019-04-21T04:10:02.895Z,5.18
2019-04-21T04:13:07.691Z,5.27
2019-04-21T04:19:14.683Z,5.08
2019-04-21T04:22:31.387Z,5.07
2019-04-21T04:31:42.762Z,6.12
2019-04-21T04:35:05.929Z,6.72
2019-04-21T04:38:15.442Z,7.48
2019-04-21T04:44:51.534Z,8.48
2019-04-21T04:47:33.432Z,8.88
2019-04-21T05:00:15.700Z,11.78
2019-04-21T05:03:13.486Z,12.04
2019-04-21T05:09:30.838Z,12.88
2019-04-21T05:12:44.235Z,13.05
2019-04-21T05:15:52.643Z,13.55
2019-04-21T05:19:04.174Z,14.08
2019-04-21T05:21:57.234Z,13.52
2019-04-21T05:24:55.249Z,14.19
2019-04-21T05:28:00.058Z,13.43
2019-04-21T05:31:43.008Z,14.51
2019-04-21T05:34:42.634Z,14.53
2019-04-21T05:37:59.899Z,14.08
2019-04-21T05:41:00.398Z,14.35
2019-04-21T05:44:10.886Z,14.48
2019-04-21T05:47:46.272Z,14.59
2019-04-21T05:50:30.421Z,14.98
2019-04-21T05:53:36.215Z,14.89
2019-04-21T05:56:49.802Z,15.54
2019-04-21T05:59:53.338Z,16.58
2019-04-21T06:03:03.832Z,15.61
2019-04-21T06:06:13.587Z,16.44
2019-04-21T06:09:21.291Z,17.02
2019-04-21T06:12:28.404Z,17.46
2019-04-21T06:15:37.379Z,18.06
2019-04-21T06:21:44.907Z,17.54
2019-04-21T06:25:21.095Z,18.57
2019-04-21T06:27:58.985Z,16.94
2019-04-21T06:34:16.695Z,17.59
2019-04-21T06:37:52.194Z,17.51
2019-04-21T06:40:40.678Z,16.45
2019-04-21T06:43:54.885Z,16.72
2019-04-21T06:46:49.005Z,16.64
2019-04-21T06:50:15.359Z,15.70
2019-04-21T06:53:04.049Z,14.86
2019-04-21T06:56:14.927Z,15.25
2019-04-21T06:59:16.414Z,14.96
2019-04-21T07:02:50.496Z,14.88
2019-04-21T07:05:42.443Z,14.54
2019-04-21T07:08:52.940Z,14.93
2019-04-21T07:11:49.050Z,14.63
2019-04-21T07:14:59.568Z,15.22
2019-04-21T07:18:09.259Z,15.39
2019-04-21T07:21:15.839Z,14.87
2019-04-21T07:24:30.440Z,15.25
2019-04-21T07:27:31.566Z,15.90
2019-04-21T07:30:54.123Z,15.90
2019-04-21T07:33:54.251Z,16.11
2019-04-21T07:39:54.834Z,15.63
2019-04-21T07:43:01.402Z,16.34
2019-04-21T07:46:03.737Z,16.12
2019-04-21T07:49:50.141Z,15.65
2019-04-21T07:53:08.371Z,15.73
2019-04-21T07:55:50.979Z,15.87
2019-04-21T07:59:14.741Z,15.96
2019-04-21T08:02:28.124Z,15.59
2019-04-21T08:05:26.399Z,15.22
2019-04-21T08:08:34.245Z,15.22
2019-04-21T08:11:40.199Z,15.29
2019-04-21T08:14:55.636Z,15.18
2019-04-21T08:17:57.286Z,15.88
2019-04-21T08:21:08.471Z,16.12
2019-04-21T08:24:12.686Z,16.15
2019-04-21T08:27:19.847Z,15.91
2019-04-21T08:30:31.986Z,15.92
2019-04-21T08:33:41.424Z,15.99
2019-04-21T08:36:41.791Z,15.89
2019-04-21T08:39:59.331Z,15.91
2019-04-21T08:42:55.005Z,16.28
2019-04-21T08:46:01.543Z,16.16
2019-04-21T08:49:09.333Z,16.40
2019-04-21T08:52:34.713Z,16.56
2019-04-21T08:55:39.975Z,16.54
2019-04-21T08:59:07.479Z,16.35
2019-04-21T09:02:16.535Z,16.30
2019-04-21T09:05:17.527Z,16.74
2019-04-21T09:08:31.622Z,16.56
2019-04-21T09:11:36.251Z,16.62
2019-04-21T09:14:41.509Z,16.65
2019-04-21T09:17:43.778Z,16.81
2019-04-21T09:20:58.494Z,16.98
2019-04-21T09:24:04.549Z,17.22
2019-04-21T09:27:10.173Z,17.15
2019-04-21T09:30:02.659Z,17.10
2019-04-21T09:33:07.386Z,17.07
2019-04-21T09:36:17.931Z,17.22
2019-04-21T09:39:23.714Z,17.44
2019-04-21T09:42:35.243Z,17.50
2019-04-21T09:45:35.492Z,17.52
2019-04-21T09:48:49.792Z,17.81
2019-04-21T09:51:48.367Z,17.69
2019-04-21T09:55:03.487Z,18.00
2019-04-21T09:58:09.955Z,18.11
2019-04-21T10:01:19.792Z,18.06
2019-04-21T10:04:14.814Z,17.77
2019-04-21T10:07:29.311Z,18.05
2019-04-21T10:10:29.712Z,18.35
2019-04-21T10:13:36.227Z,18.56
2019-04-21T10:16:47.155Z,18.35
2019-04-21T10:19:52.920Z,18.52
2019-04-21T10:22:59.410Z,18.18
2019-04-21T10:26:06.337Z,18.23
2019-04-21T10:29:21.793Z,18.48
2019-04-21T10:32:23.183Z,18.72
2019-04-21T10:35:27.164Z,18.94
2019-04-21T10:38:38.959Z,19.20
2019-04-21T10:41:39.524Z,19.04
2019-04-21T10:44:45.244Z,19.36
2019-04-21T10:47:50.632Z,19.55
2019-04-21T10:50:56.915Z,19.48
2019-04-21T10:54:02.402Z,19.23
2019-04-21T10:57:12.572Z,19.20
2019-04-21T11:00:18.800Z,19.36
2019-04-21T11:03:44.748Z,19.56
2019-04-21T11:06:50.664Z,19.87
2019-04-21T11:09:56.265Z,19.66
2019-04-21T11:13:02.757Z,19.82
2019-04-21T11:16:08.902Z,19.92
2019-04-21T11:19:14.317Z,19.98
2019-04-21T11:22:20.826Z,20.09
2019-04-21T11:25:26.293Z,20.00
2019-04-21T11:28:31.655Z,20.18
2019-04-21T11:31:36.980Z,19.89
2019-04-21T11:34:43.163Z,19.95
2019-04-21T11:37:50.288Z,19.91
2019-04-21T11:40:55.990Z,20.09
2019-04-21T11:44:01.545Z,19.87
2019-04-21T11:47:10.341Z,19.95
2019-04-21T11:50:16.995Z,20.25
2019-04-21T11:53:23.142Z,20.03
2019-04-21T11:56:28.797Z,20.14
2019-04-21T11:59:35.524Z,19.81
2019-04-21T12:02:41.543Z,20.18
2019-04-21T12:05:47.712Z,20.20
2019-04-21T12:08:56.405Z,20.42
2019-04-21T12:12:01.241Z,20.41
2019-04-21T12:15:12.089Z,20.40
2019-04-21T12:18:16.026Z,20.49
2019-04-21T12:21:21.336Z,20.42
2019-04-21T12:24:30.910Z,20.51
2019-04-21T12:27:35.968Z,20.55
2019-04-21T12:30:41.979Z,20.64
2019-04-21T12:33:56.171Z,20.72
2019-04-21T12:37:01.726Z,20.72
2019-04-21T12:40:08.414Z,20.64
2019-04-21T12:43:16.694Z,20.56
2019-04-21T12:46:22.215Z,20.61
2019-04-21T12:49:27.635Z,20.47
2019-04-21T12:52:33.595Z,20.54
2019-04-21T12:55:42.760Z,20.43
2019-04-21T12:58:47.123Z,20.60
2019-04-21T13:01:52.875Z,20.56
2019-04-21T13:04:58.281Z,20.48
2019-04-21T13:08:03.846Z,20.69
2019-04-21T13:11:09.677Z,20.80
2019-04-21T13:14:17.725Z,20.78
2019-04-21T13:17:23.600Z,20.89
2019-04-21T13:20:30.002Z,20.87
2019-04-21T13:23:36.867Z,20.79
2019-04-21T13:26:47.239Z,20.75
2019-04-21T13:29:50.398Z,20.70
2019-04-21T13:32:55.780Z,20.88
2019-04-21T13:36:02.719Z,20.85
2019-04-21T13:39:55.222Z,20.79
2019-04-21T13:42:45.351Z,20.78
2019-04-21T13:45:45.905Z,20.88
2019-04-21T13:48:52.785Z,20.77
2019-04-21T13:51:58.244Z,20.79
2019-04-21T13:55:03.570Z,20.54
2019-04-21T13:58:10.304Z,20.61
2019-04-21T14:01:16.125Z,20.98
2019-04-21T14:04:23.177Z,20.99
2019-04-21T14:07:30.176Z,21.15
2019-04-21T14:10:35.708Z,21.07
2019-04-21T14:13:42.592Z,20.77
2019-04-21T14:16:49.920Z,20.86
2019-04-21T14:19:55.349Z,20.98
2019-04-21T14:23:13.652Z,20.85
2019-04-21T14:26:09.685Z,20.99
2019-04-21T14:29:15.512Z,21.04
2019-04-21T14:32:22.356Z,20.92
2019-04-21T14:35:28.973Z,20.66
2019-04-21T14:38:34.765Z,20.75
2019-04-21T14:41:40.450Z,20.90
2019-04-21T14:44:47.421Z,20.85
2019-04-21T14:48:03.201Z,20.86
2019-04-21T14:51:31.591Z,20.87
2019-04-21T14:54:59.034Z,20.84
2019-04-21T14:58:05.278Z,20.72
2019-04-21T15:01:13.657Z,20.58
2019-04-21T15:04:20.354Z,20.65
2019-04-21T15:07:27.537Z,20.85
2019-04-21T15:10:34.005Z,20.89
2019-04-21T15:13:40.177Z,20.59
2019-04-21T15:16:46.928Z,20.60
2019-04-21T15:19:59.703Z,20.60
2019-04-21T15:23:00.124Z,20.55
2019-04-21T15:26:06.067Z,20.53
2019-04-21T15:29:12.844Z,20.62
2019-04-21T15:32:18.784Z,20.53
2019-04-21T15:35:27.177Z,20.53
2019-04-21T15:38:33.886Z,20.39
2019-04-21T15:41:40.657Z,20.40
2019-04-21T15:44:46.146Z,20.25
2019-04-21T15:47:51.919Z,20.39
2019-04-21T15:50:58.720Z,20.54
2019-04-21T15:54:06.660Z,20.54
2019-04-21T15:57:17.593Z,20.56
2019-04-21T16:00:34.341Z,20.35
2019-04-21T16:03:40.675Z,20.31
2019-04-21T16:06:45.988Z,20.40
2019-04-21T16:09:52.350Z,20.35
2019-04-21T16:13:01.610Z,20.17
2019-04-21T16:16:08.412Z,20.21
2019-04-21T16:19:14.331Z,20.16
2019-04-21T16:22:20.928Z,20.11
2019-04-21T16:25:26.826Z,19.97
2019-04-21T16:28:33.334Z,20.03
2019-04-21T16:31:38.782Z,19.91
2019-04-21T16:34:51.015Z,19.70
2019-04-21T16:37:57.166Z,19.77
2019-04-21T16:41:06.461Z,19.67
2019-04-21T16:44:11.172Z,19.70
2019-04-21T16:47:17.264Z,19.71
2019-04-21T16:50:23.568Z,19.45
2019-04-21T16:53:34.125Z,19.54
2019-04-21T16:57:05.978Z,19.42
2019-04-21T17:00:29.105Z,19.25
2019-04-21T17:03:26.403Z,19.16
2019-04-21T17:06:33.229Z,19.27
2019-04-21T17:09:40.915Z,18.88
2019-04-21T17:12:47.983Z,18.94
2019-04-21T17:16:15.323Z,18.83
2019-04-21T17:19:12.736Z,18.70
2019-04-21T17:22:09.956Z,18.68
2019-04-21T17:25:16.185Z,18.64
2019-04-21T17:28:21.649Z,18.53
2019-04-21T17:31:26.955Z,18.47
2019-04-21T17:34:33.915Z,18.35
2019-04-21T17:37:40.460Z,18.28
2019-04-21T17:40:45.897Z,18.08
2019-04-21T17:43:52.509Z,18.04
2019-04-21T17:47:03.525Z,17.87
2019-04-21T17:50:37.643Z,17.68
2019-04-21T17:53:59.305Z,17.47
2019-04-21T17:57:26.612Z,17.48
2019-04-21T18:00:51.821Z,17.33
2019-04-21T18:03:46.234Z,16.99
2019-04-21T18:07:46.426Z,16.93
2019-04-21T18:10:37.477Z,16.55
2019-04-21T18:13:28.721Z,16.49
2019-04-21T18:16:40.921Z,16.52
2019-04-21T18:19:45.168Z,16.24
2019-04-21T18:23:00.919Z,16.02
2019-04-21T18:26:19.182Z,15.84
2019-04-21T18:29:15.850Z,15.81
2019-04-21T18:32:27.378Z,15.51
2019-04-21T18:35:38.985Z,15.27
2019-04-21T18:39:04.452Z,15.10
2019-04-21T18:42:46.455Z,14.68
2019-04-21T18:46:23.143Z,14.30
2019-04-21T18:49:13.122Z,14.11
2019-04-21T18:52:48.267Z,13.92
2019-04-21T18:55:46.719Z,13.77
2019-04-21T18:58:48.702Z,13.64
2019-04-21T19:02:02.408Z,13.55
2019-04-21T19:05:09.103Z,13.43
2019-04-21T19:08:27.878Z,13.30
2019-04-21T19:11:37.699Z,13.26
2019-04-21T19:14:43.073Z,13.27
2019-04-21T19:18:29.506Z,13.29
2019-04-21T19:20:54.045Z,13.43
2019-04-21T19:27:19.338Z,13.74
2019-04-21T19:30:33.226Z,13.74
2019-04-21T19:33:27.351Z,13.85
2019-04-21T19:36:17.342Z,13.86
2019-04-21T19:39:39.259Z,13.68
2019-04-21T19:42:39.762Z,13.45
2019-04-21T19:45:54.281Z,13.43
2019-04-21T19:49:10.746Z,13.64
2019-04-21T19:52:01.294Z,13.47
2019-04-21T19:55:00.479Z,13.54
2019-04-21T19:58:07.193Z,13.44
2019-04-21T20:01:14.012Z,13.49
2019-04-21T20:04:31.806Z,13.23
2019-04-21T20:07:47.025Z,13.25
2019-04-21T20:10:55.076Z,13.06
2019-04-21T20:14:35.891Z,13.08
2019-04-21T20:17:05.605Z,13.00
2019-04-21T20:20:15.159Z,12.85
2019-04-21T20:23:27.673Z,12.82
2019-04-21T20:26:37.923Z,12.82
2019-04-21T20:29:57.891Z,12.92
2019-04-21T20:33:14.147Z,12.73
2019-04-21T20:39:05.986Z,12.84
2019-04-21T20:42:22.585Z,12.61
2019-04-21T20:45:34.522Z,12.67
2019-04-21T20:48:30.568Z,12.64
2019-04-21T20:51:42.572Z,12.76
2019-04-21T20:54:48.269Z,13.51
2019-04-21T20:57:53.797Z,13.81
2019-04-21T21:01:25.398Z,13.55
2019-04-21T21:04:07.438Z,13.46
2019-04-21T21:07:36.380Z,13.49
2019-04-21T21:10:29.743Z,13.08
2019-04-21T21:13:36.684Z,12.69
2019-04-21T21:16:47.572Z,12.59
2019-04-21T21:19:54.526Z,12.89
2019-04-21T21:22:50.679Z,12.80
2019-04-21T21:26:10.683Z,12.56
2019-04-21T21:29:03.653Z,12.75
2019-04-21T21:32:20.693Z,12.75
2019-04-21T21:35:23.182Z,12.87
2019-04-21T21:38:36.329Z,13.01
2019-04-21T21:41:31.864Z,12.99
2019-04-21T21:44:35.232Z,12.99
2019-04-21T21:47:54.653Z,12.95
2019-04-21T21:50:59.966Z,12.81
2019-04-21T21:53:55.201Z,13.44
2019-04-21T21:57:00.918Z,13.67
2019-04-21T22:00:12.332Z,14.15
2019-04-21T22:03:26.634Z,14.34
2019-04-21T22:06:36.311Z,14.64
2019-04-21T22:09:32.340Z,14.52
2019-04-21T22:12:49.122Z,14.29
2019-04-21T22:15:48.241Z,13.93
2019-04-21T22:19:14.253Z,14.17
2019-04-21T22:22:14.054Z,13.81
2019-04-21T22:25:12.707Z,14.17
2019-04-21T22:28:15.654Z,14.49
2019-04-21T22:31:25.325Z,13.97
2019-04-21T22:34:35.965Z,14.07
2019-04-21T22:37:47.399Z,14.13
2019-04-21T22:40:55.947Z,13.73
2019-04-21T22:43:51.758Z,13.54
2019-04-21T22:47:06.153Z,13.66
2019-04-21T22:50:04.665Z,13.53
2019-04-21T22:53:11.951Z,13.86
2019-04-21T22:56:25.571Z,14.13
2019-04-21T22:59:27.842Z,14.30
2019-04-21T23:02:35.327Z,14.56
2019-04-21T23:05:41.698Z,14.65
2019-04-21T23:08:48.068Z,14.50
2019-04-21T23:11:56.566Z,14.25
2019-04-21T23:15:06.500Z,13.89
2019-04-21T23:18:27.318Z,13.32
2019-04-21T23:21:27.794Z,13.22
2019-04-21T23:24:45.545Z,13.61
2019-04-21T23:27:46.949Z,13.54
2019-04-21T23:31:00.848Z,12.93
2019-04-21T23:33:44.285Z,12.38
2019-04-21T23:36:57.406Z,12.05
2019-04-21T23:40:02.696Z,11.56
2019-04-21T23:43:09.525Z,11.41
2019-04-21T23:46:19.811Z,11.12
2019-04-21T23:49:29.653Z,10.97
2019-04-21T23:52:25.612Z,10.79
2019-04-21T23:55:31.500Z,11.00
2019-04-21T23:58:39.891Z,11.16
